createdAt,value
2022-08-20T00:02:10.266Z,21.05
2022-08-20T00:05:14.416Z,21.06
2022-08-20T00:08:16.547Z,21.12
2022-08-20T00:11:26.113Z,21.12
2022-08-20T00:14:31.084Z,21.09
2022-08-20T00:17:39.207Z,21.09
2022-08-20T00:20:45.508Z,21.11
2022-08-20T00:23:49.500Z,21.10
2022-08-20T00:26:51.931Z,21.11
2022-08-20T00:29:55.091Z,21.02
2022-08-20T00:33:00.266Z,21.02
2022-08-20T00:36:06.518Z,20.99
2022-08-20T00:39:08.663Z,21.08
2022-08-20T00:42:11.334Z,21.10
2022-08-20T00:45:14.101Z,21.12
2022-08-20T00:48:16.573Z,21.04
2022-08-20T00:51:27.281Z,21.01
2022-08-20T00:54:46.860Z,20.92
2022-08-20T00:58:01.125Z,20.96
2022-08-20T01:01:05.394Z,20.94
2022-08-20T01:04:07.630Z,21.01
2022-08-20T01:07:10.499Z,20.97
2022-08-20T01:10:19.266Z,20.99
2022-08-20T01:13:24.298Z,21.07
2022-08-20T01:16:31.372Z,21.09
2022-08-20T01:19:42.876Z,21.08
2022-08-20T01:23:08.866Z,21.06
2022-08-20T01:26:15.815Z,20.96
2022-08-20T01:29:22.636Z,21.02
2022-08-20T01:32:25.032Z,21.08
2022-08-20T01:35:28.793Z,21.00
2022-08-20T01:38:31.314Z,20.93
2022-08-20T01:41:41.221Z,20.88
2022-08-20T01:44:47.015Z,20.90
2022-08-20T01:47:49.810Z,20.88
2022-08-20T01:51:08.908Z,20.78
2022-08-20T01:54:11.792Z,20.71
2022-08-20T01:57:17.024Z,20.68
2022-08-20T02:00:22.114Z,20.67
2022-08-20T02:03:25.101Z,20.55
2022-08-20T02:06:30.550Z,20.52
2022-08-20T02:09:37.571Z,20.51
2022-08-20T02:12:40.034Z,20.51
2022-08-20T02:15:42.957Z,20.50
2022-08-20T02:18:45.649Z,20.43
2022-08-20T02:21:52.104Z,20.40
2022-08-20T02:24:54.539Z,20.42
2022-08-20T02:27:57.960Z,20.48
2022-08-20T02:31:01.585Z,20.55
2022-08-20T02:34:18.446Z,20.45
2022-08-20T02:37:25.023Z,20.39
2022-08-20T02:40:30.732Z,20.32
2022-08-20T02:43:34.471Z,20.37
2022-08-20T02:46:36.880Z,20.35
2022-08-20T02:49:39.350Z,20.33
2022-08-20T02:52:42.160Z,20.27
2022-08-20T02:55:54.122Z,20.33
2022-08-20T02:58:56.234Z,20.31
2022-08-20T03:01:59.240Z,20.24
2022-08-20T03:05:04.178Z,20.26
2022-08-20T03:08:08.414Z,20.29
2022-08-20T03:11:11.002Z,20.28
2022-08-20T03:14:13.407Z,20.32
2022-08-20T03:17:16.454Z,20.34
2022-08-20T03:20:22.392Z,20.27
2022-08-20T03:23:26.263Z,20.26
2022-08-20T03:26:28.687Z,20.29
2022-08-20T03:29:30.803Z,20.34
2022-08-20T03:32:33.257Z,20.35
2022-08-20T03:35:36.541Z,20.40
2022-08-20T03:38:39.074Z,20.39
2022-08-20T03:41:41.294Z,20.43
2022-08-20T03:44:43.831Z,20.37
2022-08-20T03:47:46.417Z,20.41
2022-08-20T03:50:50.742Z,20.38
2022-08-20T03:53:52.898Z,20.33
2022-08-20T03:56:55.290Z,20.34
2022-08-20T03:59:58.214Z,20.37
2022-08-20T04:03:01.026Z,20.37
2022-08-20T04:06:04.071Z,20.44
2022-08-20T04:09:06.197Z,20.44
2022-08-20T04:12:12.342Z,20.49
2022-08-20T04:15:17.210Z,20.49
2022-08-20T04:18:24.192Z,20.44
2022-08-20T04:21:26.490Z,20.46
2022-08-20T04:24:35.526Z,20.46
2022-08-20T04:27:38.201Z,20.49
2022-08-20T04:30:47.514Z,20.51
2022-08-20T04:33:54.046Z,20.53
2022-08-20T04:36:56.717Z,20.49
2022-08-20T04:40:17.683Z,20.51
2022-08-20T04:43:23.145Z,20.51
2022-08-20T04:46:28.655Z,20.52
2022-08-20T04:49:31.315Z,20.57
2022-08-20T04:52:33.492Z,20.58
2022-08-20T04:55:39.173Z,20.60
2022-08-20T04:58:42.080Z,20.60
2022-08-20T05:01:44.459Z,20.55
2022-08-20T05:04:47.613Z,20.53
2022-08-20T05:07:50.257Z,20.62
2022-08-20T05:11:06.635Z,20.66
2022-08-20T05:14:16.688Z,20.75
2022-08-20T05:17:18.890Z,20.71
2022-08-20T05:20:21.350Z,20.73
2022-08-20T05:23:23.634Z,20.80
2022-08-20T05:26:26.372Z,20.83
2022-08-20T05:29:28.578Z,20.91
2022-08-20T05:32:31.112Z,20.96
2022-08-20T05:35:38.438Z,20.93
2022-08-20T05:38:40.791Z,20.96
2022-08-20T05:41:42.939Z,20.99
2022-08-20T05:44:46.587Z,21.06
2022-08-20T05:47:53.409Z,21.18
2022-08-20T05:50:59.034Z,21.21
2022-08-20T05:54:01.159Z,21.21
2022-08-20T05:57:04.673Z,21.25
2022-08-20T06:00:12.173Z,21.28
2022-08-20T06:03:33.141Z,21.34
2022-08-20T06:06:45.990Z,21.40
2022-08-20T06:09:49.966Z,21.42
2022-08-20T06:12:53.176Z,21.52
2022-08-20T06:15:56.847Z,21.52
2022-08-20T06:19:02.844Z,21.54
2022-08-20T06:22:18.577Z,21.63
2022-08-20T06:25:29.568Z,21.68
2022-08-20T06:28:31.935Z,21.75
2022-08-20T06:31:35.026Z,21.77
2022-08-20T06:34:37.181Z,21.79
2022-08-20T06:37:40.324Z,21.92
2022-08-20T06:40:42.421Z,21.90
2022-08-20T06:43:44.797Z,21.92
2022-08-20T06:46:46.944Z,21.98
2022-08-20T06:49:49.391Z,22.10
2022-08-20T06:52:52.401Z,22.19
2022-08-20T06:55:58.822Z,22.33
2022-08-20T06:59:01.063Z,22.46
2022-08-20T07:02:04.579Z,22.56
2022-08-20T07:05:08.020Z,22.61
2022-08-20T07:08:13.554Z,22.67
2022-08-20T07:11:15.667Z,22.69
2022-08-20T07:14:18.453Z,22.62
2022-08-20T07:17:21.909Z,22.49
2022-08-20T07:20:27.549Z,22.42
2022-08-20T07:23:31.662Z,22.38
2022-08-20T07:26:34.531Z,22.37
2022-08-20T07:29:55.266Z,22.36
2022-08-20T07:32:57.838Z,22.31
2022-08-20T07:36:06.167Z,22.32
2022-08-20T07:39:08.613Z,22.28
2022-08-20T07:42:11.510Z,22.32
2022-08-20T07:45:15.281Z,22.36
2022-08-20T07:48:31.254Z,22.22
2022-08-20T07:51:35.779Z,22.08
2022-08-20T07:54:38.300Z,21.86
2022-08-20T07:57:41.730Z,21.68
2022-08-20T08:00:44.112Z,21.44
2022-08-20T08:03:50.118Z,21.25
2022-08-20T08:06:52.835Z,21.21
2022-08-20T08:09:56.489Z,21.14
2022-08-20T08:13:02.507Z,20.95
2022-08-20T08:16:07.235Z,20.78
2022-08-20T08:19:11.855Z,20.68
2022-08-20T08:22:17.374Z,20.62
2022-08-20T08:25:19.621Z,20.41
2022-08-20T08:28:22.013Z,20.34
2022-08-20T08:31:25.673Z,20.40
2022-08-20T08:34:28.142Z,20.33
2022-08-20T08:37:31.080Z,20.26
2022-08-20T08:40:33.874Z,20.18
2022-08-20T08:43:36.038Z,20.14
2022-08-20T08:46:42.279Z,20.00
2022-08-20T08:49:47.334Z,19.96
2022-08-20T08:52:58.012Z,19.95
2022-08-20T08:56:00.872Z,19.97
2022-08-20T08:59:08.683Z,19.95
2022-08-20T09:02:20.267Z,19.92
2022-08-20T09:05:27.221Z,19.92
2022-08-20T09:08:35.875Z,19.86
2022-08-20T09:11:50.637Z,19.84
2022-08-20T09:14:52.774Z,19.90
2022-08-20T09:17:55.434Z,19.98
2022-08-20T09:20:58.540Z,20.02
2022-08-20T09:24:00.934Z,19.99
2022-08-20T09:27:03.945Z,19.94
2022-08-20T09:30:07.132Z,19.91
2022-08-20T09:33:09.573Z,19.93
2022-08-20T09:36:31.352Z,20.00
2022-08-20T09:39:34.264Z,20.00
2022-08-20T09:42:41.384Z,20.11
2022-08-20T09:45:44.066Z,20.18
2022-08-20T09:48:46.425Z,20.05
2022-08-20T09:51:48.586Z,19.95
2022-08-20T09:54:55.291Z,19.95
2022-08-20T09:57:58.603Z,19.89
2022-08-20T10:01:22.096Z,19.88
2022-08-20T10:04:24.586Z,19.86
2022-08-20T10:07:26.916Z,19.80
2022-08-20T10:10:29.337Z,19.80
2022-08-20T10:13:31.552Z,19.82
2022-08-20T10:16:33.944Z,19.91
2022-08-20T10:19:36.144Z,20.16
2022-08-20T10:22:38.594Z,20.36
2022-08-20T10:25:42.559Z,20.77
2022-08-20T10:28:44.978Z,21.05
2022-08-20T10:31:47.062Z,21.09
2022-08-20T10:34:49.584Z,21.13
2022-08-20T10:37:52.324Z,21.16
2022-08-20T10:40:54.763Z,21.19
2022-08-20T10:43:56.875Z,21.17
2022-08-20T10:47:12.561Z,21.31
2022-08-20T10:50:16.644Z,21.53
2022-08-20T10:53:19.324Z,21.46
2022-08-20T10:56:21.544Z,21.48
2022-08-20T10:59:23.919Z,21.48
2022-08-20T11:02:27.339Z,21.56
2022-08-20T11:05:29.754Z,21.44
2022-08-20T11:08:34.296Z,21.45
2022-08-20T11:11:38.733Z,21.58
2022-08-20T11:14:41.060Z,21.54
2022-08-20T11:17:44.228Z,21.56
2022-08-20T11:20:46.644Z,21.78
2022-08-20T11:23:49.482Z,22.03
2022-08-20T11:26:53.331Z,22.11
2022-08-20T11:29:55.879Z,22.20
2022-08-20T11:32:59.790Z,22.30
2022-08-20T11:36:02.198Z,22.49
2022-08-20T11:39:05.126Z,22.58
2022-08-20T11:42:07.658Z,22.63
2022-08-20T11:45:10.403Z,22.64
2022-08-20T11:48:12.887Z,22.59
2022-08-20T11:51:14.990Z,22.42
2022-08-20T11:54:18.064Z,22.35
2022-08-20T11:57:22.394Z,22.41
2022-08-20T12:00:33.063Z,22.39
2022-08-20T12:03:36.611Z,22.41
2022-08-20T12:06:38.760Z,22.43
2022-08-20T12:09:51.025Z,22.45
2022-08-20T12:12:54.557Z,22.37
2022-08-20T12:15:57.312Z,22.45
2022-08-20T12:18:59.417Z,22.53
2022-08-20T12:22:01.807Z,22.58
2022-08-20T12:25:23.905Z,22.64
2022-08-20T12:28:26.287Z,22.68
2022-08-20T12:31:28.394Z,22.73
2022-08-20T12:34:30.786Z,22.70
2022-08-20T12:37:33.047Z,22.71
2022-08-20T12:40:35.862Z,22.76
2022-08-20T12:43:37.997Z,22.79
2022-08-20T12:46:40.379Z,22.83
2022-08-20T12:49:46.007Z,22.76
2022-08-20T12:52:49.110Z,22.78
2022-08-20T12:55:51.226Z,22.83
2022-08-20T12:58:53.576Z,22.86
2022-08-20T13:01:56.160Z,22.89
2022-08-20T13:05:03.935Z,22.82
2022-08-20T13:08:09.518Z,22.87
2022-08-20T13:11:11.882Z,22.92
2022-08-20T13:14:13.983Z,22.98
2022-08-20T13:17:17.941Z,22.94
2022-08-20T13:20:20.636Z,22.94
2022-08-20T13:23:23.010Z,22.96
2022-08-20T13:26:25.209Z,23.02
2022-08-20T13:29:27.598Z,23.02
2022-08-20T13:32:29.809Z,23.05
2022-08-20T13:35:32.504Z,23.09
2022-08-20T13:38:34.607Z,23.07
2022-08-20T13:41:36.992Z,23.06
2022-08-20T13:44:39.604Z,23.13
2022-08-20T13:47:42.913Z,23.12
2022-08-20T13:50:47.341Z,23.12
2022-08-20T13:53:50.017Z,23.16
2022-08-20T13:56:52.106Z,23.21
2022-08-20T13:59:56.975Z,23.24
2022-08-20T14:03:03.890Z,23.26
2022-08-20T14:06:08.535Z,23.31
2022-08-20T14:09:10.653Z,23.33
2022-08-20T14:12:13.509Z,23.29
2022-08-20T14:15:15.924Z,23.30
2022-08-20T14:18:19.272Z,23.31
2022-08-20T14:21:21.365Z,23.38
2022-08-20T14:24:23.728Z,23.37
2022-08-20T14:27:30.682Z,23.49
2022-08-20T14:30:34.016Z,23.57
2022-08-20T14:33:36.475Z,23.51
2022-08-20T14:36:38.879Z,23.50
2022-08-20T14:39:42.641Z,23.46
2022-08-20T14:42:47.659Z,23.44
2022-08-20T14:45:53.498Z,23.44
2022-08-20T14:48:55.845Z,23.48
2022-08-20T14:51:57.932Z,23.46
2022-08-20T14:55:00.447Z,23.43
2022-08-20T14:58:06.884Z,23.42
2022-08-20T15:01:09.765Z,23.35
2022-08-20T15:04:11.894Z,23.35
2022-08-20T15:07:21.453Z,23.41
2022-08-20T15:10:27.895Z,23.42
2022-08-20T15:13:30.393Z,23.36
2022-08-20T15:16:32.799Z,23.36
2022-08-20T15:19:35.764Z,23.31
2022-08-20T15:22:38.919Z,23.25
2022-08-20T15:25:41.344Z,23.20
2022-08-20T15:28:44.884Z,23.18
2022-08-20T15:31:47.253Z,23.07
2022-08-20T15:34:50.213Z,22.97
2022-08-20T15:37:54.828Z,23.00
2022-08-20T15:40:57.063Z,22.97
2022-08-20T15:43:59.449Z,22.91
2022-08-20T15:47:24.891Z,22.83
2022-08-20T15:51:03.970Z,22.83
2022-08-20T15:54:12.117Z,22.80
2022-08-20T15:57:39.316Z,22.77
2022-08-20T16:00:54.160Z,22.74
2022-08-20T16:04:12.669Z,22.74
2022-08-20T16:07:22.445Z,22.73
2022-08-20T16:10:34.619Z,22.65
2022-08-20T16:13:50.490Z,22.72
2022-08-20T16:17:04.297Z,22.73
2022-08-20T16:20:22.232Z,22.74
2022-08-20T16:23:37.953Z,22.68
2022-08-20T16:26:43.637Z,22.72
2022-08-20T16:29:51.121Z,22.71
2022-08-20T16:33:03.080Z,22.65
2022-08-20T16:36:28.860Z,22.68
2022-08-20T16:39:39.389Z,22.62
2022-08-20T16:42:44.316Z,22.63
2022-08-20T16:45:51.789Z,22.61
2022-08-20T16:48:58.177Z,22.52
2022-08-20T16:52:01.143Z,22.51
2022-08-20T16:55:03.893Z,22.48
2022-08-20T16:58:05.997Z,22.47
2022-08-20T17:01:14.263Z,22.44
2022-08-20T17:04:22.932Z,22.41
2022-08-20T17:07:40.426Z,22.40
2022-08-20T17:11:12.106Z,22.32
2022-08-20T17:14:18.848Z,22.27
2022-08-20T17:17:33.282Z,22.25
2022-08-20T17:20:43.510Z,22.26
2022-08-20T17:23:56.250Z,22.22
2022-08-20T17:27:10.124Z,22.16
2022-08-20T17:30:20.243Z,22.13
2022-08-20T17:33:36.962Z,22.09
2022-08-20T17:37:08.150Z,22.06
2022-08-20T17:40:26.074Z,22.02
2022-08-20T17:43:32.046Z,21.96
2022-08-20T17:46:46.718Z,21.95
2022-08-20T17:50:02.792Z,21.86
2022-08-20T17:53:23.201Z,21.73
2022-08-20T17:56:32.462Z,21.67
2022-08-20T18:00:01.443Z,21.57
2022-08-20T18:03:26.337Z,21.56
2022-08-20T18:06:48.964Z,21.53
2022-08-20T18:10:01.638Z,21.51
2022-08-20T18:13:19.139Z,21.54
2022-08-20T18:16:30.354Z,21.53
2022-08-20T18:19:50.795Z,21.48
2022-08-20T18:23:05.417Z,21.43
2022-08-20T18:26:13.131Z,21.44
2022-08-20T18:29:29.933Z,21.36
2022-08-20T18:32:38.850Z,21.27
2022-08-20T18:35:45.809Z,21.21
2022-08-20T18:39:07.237Z,21.24
2022-08-20T18:42:26.795Z,21.28
2022-08-20T18:45:35.497Z,21.31
2022-08-20T18:48:37.935Z,21.25
2022-08-20T18:51:49.112Z,21.17
2022-08-20T18:54:54.729Z,21.10
2022-08-20T18:58:01.057Z,21.01
2022-08-20T19:01:07.920Z,20.93
2022-08-20T19:04:20.261Z,20.87
2022-08-20T19:07:25.811Z,20.91
2022-08-20T19:11:03.189Z,20.93
2022-08-20T19:14:22.137Z,21.02
2022-08-20T19:17:35.129Z,21.06
2022-08-20T19:20:40.912Z,21.08
2022-08-20T19:23:50.752Z,21.06
2022-08-20T19:27:02.663Z,21.10
2022-08-20T19:30:05.735Z,21.10
2022-08-20T19:33:08.995Z,21.13
2022-08-20T19:36:28.069Z,21.14
2022-08-20T19:39:34.159Z,21.09
2022-08-20T19:42:43.355Z,21.03
2022-08-20T19:45:51.899Z,21.01
2022-08-20T19:49:13.051Z,20.92
2022-08-20T19:52:30.670Z,20.95
2022-08-20T19:55:38.391Z,20.91
2022-08-20T19:58:41.347Z,20.86
2022-08-20T20:01:53.025Z,20.86
2022-08-20T20:04:58.111Z,20.84
2022-08-20T20:08:03.961Z,20.78
2022-08-20T20:11:07.329Z,20.86
2022-08-20T20:14:12.868Z,20.89
2022-08-20T20:17:23.095Z,20.95
2022-08-20T20:20:30.241Z,21.04
2022-08-20T20:23:38.744Z,21.13
2022-08-20T20:26:49.894Z,21.11
2022-08-20T20:29:59.577Z,21.08
2022-08-20T20:33:13.658Z,21.09
2022-08-20T20:36:18.565Z,21.18
2022-08-20T20:39:31.107Z,21.18
2022-08-20T20:42:35.294Z,21.24
2022-08-20T20:45:44.696Z,21.28
2022-08-20T20:48:51.195Z,21.28
2022-08-20T20:51:55.472Z,21.30
2022-08-20T20:55:22.588Z,21.28
2022-08-20T20:58:24.712Z,21.25
2022-08-20T21:01:49.115Z,21.27
2022-08-20T21:04:52.339Z,21.25
2022-08-20T21:07:57.857Z,21.29
2022-08-20T21:10:59.955Z,21.34
2022-08-20T21:14:02.343Z,21.29
2022-08-20T21:17:07.303Z,21.38
2022-08-20T21:20:10.657Z,21.40
2022-08-20T21:23:13.290Z,21.33
2022-08-20T21:26:15.771Z,21.23
2022-08-20T21:29:32.148Z,21.21
2022-08-20T21:32:35.002Z,21.14
2022-08-20T21:35:37.127Z,21.06
2022-08-20T21:38:39.499Z,20.95
2022-08-20T21:41:42.787Z,20.99
2022-08-20T21:44:47.921Z,21.07
2022-08-20T21:47:52.108Z,20.99
2022-08-20T21:50:54.466Z,21.00
2022-08-20T21:53:56.617Z,20.97
2022-08-20T21:57:03.574Z,20.93
2022-08-20T22:00:13.124Z,20.89
2022-08-20T22:03:16.729Z,20.76
2022-08-20T22:06:22.295Z,20.75
2022-08-20T22:09:24.707Z,20.79
2022-08-20T22:12:27.008Z,20.77
2022-08-20T22:15:29.410Z,20.67
2022-08-20T22:18:31.653Z,20.65
2022-08-20T22:21:35.062Z,20.64
2022-08-20T22:24:37.910Z,20.68
2022-08-20T22:27:40.591Z,20.69
2022-08-20T22:30:42.903Z,20.68
2022-08-20T22:33:45.285Z,20.73
2022-08-20T22:36:48.307Z,20.75
2022-08-20T22:39:50.726Z,20.70
2022-08-20T22:42:52.865Z,20.70
2022-08-20T22:45:59.558Z,20.59
2022-08-20T22:49:03.689Z,20.53
2022-08-20T22:52:08.562Z,20.51
2022-08-20T22:55:11.245Z,20.54
2022-08-20T22:58:15.123Z,20.55
2022-08-20T23:01:19.836Z,20.52
2022-08-20T23:04:29.737Z,20.54
2022-08-20T23:07:32.174Z,20.55
2022-08-20T23:10:37.960Z,20.49
2022-08-20T23:13:40.065Z,20.54
2022-08-20T23:16:46.058Z,20.52
2022-08-20T23:19:49.658Z,20.45
2022-08-20T23:22:52.126Z,20.42
2022-08-20T23:25:57.255Z,20.47
2022-08-20T23:28:59.687Z,20.40
2022-08-20T23:32:01.950Z,20.40
2022-08-20T23:35:05.265Z,20.39
2022-08-20T23:38:08.201Z,20.39
2022-08-20T23:41:10.585Z,20.35
2022-08-20T23:44:25.480Z,20.47
2022-08-20T23:47:29.470Z,20.44
2022-08-20T23:50:31.695Z,20.47
2022-08-20T23:53:34.222Z,20.46
2022-08-20T23:56:36.395Z,20.59
2022-08-20T23:59:38.770Z,20.52
